sensor_id;sensor_type;location;lat;lon;timestamp;P1;durP1;ratioP1;P2;durP2;ratioP2
76425;SDS011;65258;42.680;23.266;2022-11-20T00:00:39;2.70;;;1.50;;
76425;SDS011;65258;42.680;23.266;2022-11-20T00:03:05;5.50;;;1.95;;
76425;SDS011;65258;42.680;23.266;2022-11-20T00:05:32;5.25;;;1.60;;
76425;SDS011;65258;42.680;23.266;2022-11-20T00:07:57;2.83;;;1.63;;
76425;SDS011;65258;42.680;23.266;2022-11-20T00:10:23;4.13;;;1.55;;
76425;SDS011;65258;42.680;23.266;2022-11-20T00:12:48;2.95;;;1.50;;
76425;SDS011;65258;42.680;23.266;2022-11-20T00:15:14;2.90;;;1.20;;
76425;SDS011;65258;42.680;23.266;2022-11-20T00:17:39;2.60;;;1.25;;
76425;SDS011;65258;42.680;23.266;2022-11-20T00:20:05;4.10;;;1.50;;
76425;SDS011;65258;42.680;23.266;2022-11-20T00:22:31;3.28;;;1.40;;
76425;SDS011;65258;42.680;23.266;2022-11-20T00:24:56;2.45;;;1.30;;
76425;SDS011;65258;42.680;23.266;2022-11-20T00:27:23;5.03;;;1.50;;
76425;SDS011;65258;42.680;23.266;2022-11-20T00:29:48;4.72;;;1.40;;
76425;SDS011;65258;42.680;23.266;2022-11-20T00:32:14;2.83;;;1.60;;
76425;SDS011;65258;42.680;23.266;2022-11-20T00:34:39;4.00;;;1.50;;
76425;SDS011;65258;42.680;23.266;2022-11-20T00:37:05;5.45;;;1.60;;
76425;SDS011;65258;42.680;23.266;2022-11-20T00:39:30;2.22;;;1.25;;
76425;SDS011;65258;42.680;23.266;2022-11-20T00:41:56;5.82;;;1.95;;
76425;SDS011;65258;42.680;23.266;2022-11-20T00:44:21;3.65;;;1.40;;
76425;SDS011;65258;42.680;23.266;2022-11-20T00:46:47;4.63;;;1.40;;
76425;SDS011;65258;42.680;23.266;2022-11-20T00:49:13;2.53;;;1.40;;
76425;SDS011;65258;42.680;23.266;2022-11-20T00:51:38;2.45;;;1.25;;
76425;SDS011;65258;42.680;23.266;2022-11-20T00:54:04;3.50;;;1.30;;
76425;SDS011;65258;42.680;23.266;2022-11-20T00:56:29;1.90;;;1.20;;
76425;SDS011;65258;42.680;23.266;2022-11-20T00:58:55;3.80;;;1.73;;
76425;SDS011;65258;42.680;23.266;2022-11-20T01:01:25;3.97;;;1.70;;
76425;SDS011;65258;42.680;23.266;2022-11-20T01:03:51;2.30;;;1.33;;
76425;SDS011;65258;42.680;23.266;2022-11-20T01:06:19;3.10;;;1.58;;
76425;SDS011;65258;42.680;23.266;2022-11-20T01:08:46;4.78;;;1.52;;
76425;SDS011;65258;42.680;23.266;2022-11-20T01:11:14;5.68;;;2.00;;
76425;SDS011;65258;42.680;23.266;2022-11-20T01:13:44;3.28;;;1.50;;
76425;SDS011;65258;42.680;23.266;2022-11-20T01:16:12;3.95;;;1.52;;
76425;SDS011;65258;42.680;23.266;2022-11-20T01:18:41;2.92;;;1.20;;
76425;SDS011;65258;42.680;23.266;2022-11-20T01:21:09;2.97;;;1.42;;
76425;SDS011;65258;42.680;23.266;2022-11-20T01:23:37;3.22;;;1.50;;
76425;SDS011;65258;42.680;23.266;2022-11-20T01:26:05;2.08;;;1.20;;
76425;SDS011;65258;42.680;23.266;2022-11-20T01:28:34;4.40;;;1.67;;
76425;SDS011;65258;42.680;23.266;2022-11-20T01:31:01;2.50;;;1.40;;
76425;SDS011;65258;42.680;23.266;2022-11-20T01:33:35;2.40;;;1.25;;
76425;SDS011;65258;42.680;23.266;2022-11-20T01:36:05;3.38;;;1.38;;
76425;SDS011;65258;42.680;23.266;2022-11-20T01:38:31;3.10;;;1.40;;
76425;SDS011;65258;42.680;23.266;2022-11-20T01:40:56;3.00;;;1.33;;
76425;SDS011;65258;42.680;23.266;2022-11-20T01:43:22;1.30;;;1.10;;
76425;SDS011;65258;42.680;23.266;2022-11-20T01:48:45;2.00;;;1.17;;
76425;SDS011;65258;42.680;23.266;2022-11-20T01:51:23;2.60;;;1.30;;
76425;SDS011;65258;42.680;23.266;2022-11-20T01:53:55;2.85;;;1.63;;
76425;SDS011;65258;42.680;23.266;2022-11-20T01:56:23;3.00;;;1.63;;
76425;SDS011;65258;42.680;23.266;2022-11-20T01:58:52;3.10;;;1.60;;
76425;SDS011;65258;42.680;23.266;2022-11-20T02:01:21;2.17;;;1.40;;
76425;SDS011;65258;42.680;23.266;2022-11-20T02:03:47;2.60;;;1.13;;
76425;SDS011;65258;42.680;23.266;2022-11-20T02:06:22;2.03;;;1.10;;
76425;SDS011;65258;42.680;23.266;2022-11-20T02:08:50;2.15;;;1.10;;
76425;SDS011;65258;42.680;23.266;2022-11-20T02:11:17;2.80;;;1.50;;
76425;SDS011;65258;42.680;23.266;2022-11-20T02:13:43;3.78;;;1.63;;
76425;SDS011;65258;42.680;23.266;2022-11-20T02:16:10;2.47;;;1.48;;
76425;SDS011;65258;42.680;23.266;2022-11-20T02:21:13;2.50;;;1.42;;
76425;SDS011;65258;42.680;23.266;2022-11-20T02:26:28;2.60;;;1.13;;
76425;SDS011;65258;42.680;23.266;2022-11-20T02:28:57;4.65;;;1.40;;
76425;SDS011;65258;42.680;23.266;2022-11-20T02:31:24;4.43;;;1.38;;
76425;SDS011;65258;42.680;23.266;2022-11-20T02:33:56;3.20;;;1.25;;
76425;SDS011;65258;42.680;23.266;2022-11-20T02:36:23;3.78;;;1.58;;
76425;SDS011;65258;42.680;23.266;2022-11-20T02:38:51;2.10;;;1.17;;
76425;SDS011;65258;42.680;23.266;2022-11-20T02:41:17;2.33;;;1.40;;
76425;SDS011;65258;42.680;23.266;2022-11-20T02:43:42;1.92;;;1.20;;
76425;SDS011;65258;42.680;23.266;2022-11-20T02:46:08;1.98;;;1.40;;
76425;SDS011;65258;42.680;23.266;2022-11-20T02:48:34;4.97;;;1.60;;
76425;SDS011;65258;42.680;23.266;2022-11-20T02:51:00;4.75;;;1.40;;
76425;SDS011;65258;42.680;23.266;2022-11-20T02:53:25;4.57;;;1.73;;
76425;SDS011;65258;42.680;23.266;2022-11-20T02:55:51;4.40;;;1.50;;
76425;SDS011;65258;42.680;23.266;2022-11-20T02:58:16;4.97;;;1.85;;
76425;SDS011;65258;42.680;23.266;2022-11-20T03:00:42;2.72;;;1.65;;
76425;SDS011;65258;42.680;23.266;2022-11-20T03:03:07;5.72;;;2.65;;
76425;SDS011;65258;42.680;23.266;2022-11-20T03:05:33;2.95;;;1.70;;
76425;SDS011;65258;42.680;23.266;2022-11-20T03:07:58;2.67;;;1.63;;
76425;SDS011;65258;42.680;23.266;2022-11-20T03:10:24;4.07;;;1.83;;
76425;SDS011;65258;42.680;23.266;2022-11-20T03:12:53;4.43;;;2.00;;
76425;SDS011;65258;42.680;23.266;2022-11-20T03:15:20;3.30;;;1.83;;
76425;SDS011;65258;42.680;23.266;2022-11-20T03:17:46;3.35;;;1.58;;
76425;SDS011;65258;42.680;23.266;2022-11-20T03:20:11;5.22;;;2.03;;
76425;SDS011;65258;42.680;23.266;2022-11-20T03:22:37;3.28;;;1.60;;
76425;SDS011;65258;42.680;23.266;2022-11-20T03:25:03;5.30;;;1.88;;
76425;SDS011;65258;42.680;23.266;2022-11-20T03:27:31;3.33;;;1.45;;
76425;SDS011;65258;42.680;23.266;2022-11-20T03:29:58;3.33;;;1.80;;
76425;SDS011;65258;42.680;23.266;2022-11-20T03:32:24;4.07;;;1.50;;
76425;SDS011;65258;42.680;23.266;2022-11-20T03:34:49;4.18;;;1.80;;
76425;SDS011;65258;42.680;23.266;2022-11-20T03:37:15;3.47;;;2.10;;
76425;SDS011;65258;42.680;23.266;2022-11-20T03:39:40;5.63;;;1.90;;
76425;SDS011;65258;42.680;23.266;2022-11-20T03:42:06;2.63;;;1.58;;
76425;SDS011;65258;42.680;23.266;2022-11-20T03:44:51;3.35;;;1.60;;
76425;SDS011;65258;42.680;23.266;2022-11-20T03:47:17;3.85;;;1.60;;
76425;SDS011;65258;42.680;23.266;2022-11-20T03:49:42;4.38;;;1.70;;
76425;SDS011;65258;42.680;23.266;2022-11-20T03:52:08;2.47;;;1.42;;
76425;SDS011;65258;42.680;23.266;2022-11-20T03:54:33;4.35;;;1.42;;
76425;SDS011;65258;42.680;23.266;2022-11-20T03:56:59;4.20;;;1.83;;
76425;SDS011;65258;42.680;23.266;2022-11-20T03:59:24;4.10;;;1.63;;
76425;SDS011;65258;42.680;23.266;2022-11-20T04:01:50;3.20;;;1.70;;
76425;SDS011;65258;42.680;23.266;2022-11-20T04:04:15;3.25;;;1.50;;
76425;SDS011;65258;42.680;23.266;2022-11-20T04:06:41;2.88;;;1.73;;
76425;SDS011;65258;42.680;23.266;2022-11-20T04:09:06;3.22;;;1.70;;
76425;SDS011;65258;42.680;23.266;2022-11-20T04:11:33;4.65;;;1.70;;
76425;SDS011;65258;42.680;23.266;2022-11-20T04:14:01;4.18;;;1.60;;
76425;SDS011;65258;42.680;23.266;2022-11-20T04:16:37;2.70;;;1.45;;
76425;SDS011;65258;42.680;23.266;2022-11-20T04:19:04;3.05;;;1.30;;
76425;SDS011;65258;42.680;23.266;2022-11-20T04:21:31;4.50;;;1.42;;
76425;SDS011;65258;42.680;23.266;2022-11-20T04:23:57;3.08;;;1.40;;
76425;SDS011;65258;42.680;23.266;2022-11-20T04:26:25;2.90;;;1.27;;
76425;SDS011;65258;42.680;23.266;2022-11-20T04:28:52;3.45;;;1.58;;
76425;SDS011;65258;42.680;23.266;2022-11-20T04:31:18;3.58;;;1.77;;
76425;SDS011;65258;42.680;23.266;2022-11-20T04:33:48;1.95;;;1.20;;
76425;SDS011;65258;42.680;23.266;2022-11-20T04:36:15;5.63;;;1.50;;
76425;SDS011;65258;42.680;23.266;2022-11-20T04:38:42;3.20;;;1.40;;
76425;SDS011;65258;42.680;23.266;2022-11-20T04:41:10;2.45;;;1.25;;
76425;SDS011;65258;42.680;23.266;2022-11-20T04:43:40;3.40;;;1.35;;
76425;SDS011;65258;42.680;23.266;2022-11-20T04:46:05;4.00;;;1.95;;
76425;SDS011;65258;42.680;23.266;2022-11-20T04:48:31;4.05;;;1.30;;
76425;SDS011;65258;42.680;23.266;2022-11-20T04:50:56;2.67;;;1.40;;
76425;SDS011;65258;42.680;23.266;2022-11-20T04:53:22;2.22;;;1.77;;
76425;SDS011;65258;42.680;23.266;2022-11-20T04:55:48;2.72;;;1.58;;
76425;SDS011;65258;42.680;23.266;2022-11-20T04:58:14;2.47;;;1.38;;
76425;SDS011;65258;42.680;23.266;2022-11-20T05:00:40;2.80;;;1.63;;
76425;SDS011;65258;42.680;23.266;2022-11-20T05:03:06;3.60;;;1.75;;
76425;SDS011;65258;42.680;23.266;2022-11-20T05:05:33;3.78;;;1.60;;
76425;SDS011;65258;42.680;23.266;2022-11-20T05:07:59;2.70;;;1.42;;
76425;SDS011;65258;42.680;23.266;2022-11-20T05:10:25;4.28;;;1.65;;
76425;SDS011;65258;42.680;23.266;2022-11-20T05:12:51;2.28;;;1.20;;
76425;SDS011;65258;42.680;23.266;2022-11-20T05:15:17;3.42;;;1.70;;
76425;SDS011;65258;42.680;23.266;2022-11-20T05:17:48;3.35;;;1.20;;
76425;SDS011;65258;42.680;23.266;2022-11-20T05:20:14;2.58;;;1.10;;
76425;SDS011;65258;42.680;23.266;2022-11-20T05:22:40;2.55;;;1.35;;
76425;SDS011;65258;42.680;23.266;2022-11-20T05:25:06;4.95;;;1.70;;
76425;SDS011;65258;42.680;23.266;2022-11-20T05:27:31;3.35;;;1.65;;
76425;SDS011;65258;42.680;23.266;2022-11-20T05:29:57;3.65;;;1.70;;
76425;SDS011;65258;42.680;23.266;2022-11-20T05:32:22;2.72;;;1.10;;
76425;SDS011;65258;42.680;23.266;2022-11-20T05:34:50;5.45;;;1.60;;
76425;SDS011;65258;42.680;23.266;2022-11-20T05:37:16;2.85;;;1.60;;
76425;SDS011;65258;42.680;23.266;2022-11-20T05:39:42;4.25;;;1.60;;
76425;SDS011;65258;42.680;23.266;2022-11-20T05:42:07;4.85;;;1.40;;
76425;SDS011;65258;42.680;23.266;2022-11-20T05:44:51;2.88;;;1.40;;
76425;SDS011;65258;42.680;23.266;2022-11-20T05:47:17;3.00;;;1.40;;
76425;SDS011;65258;42.680;23.266;2022-11-20T05:49:42;2.40;;;1.40;;
76425;SDS011;65258;42.680;23.266;2022-11-20T05:52:08;2.58;;;1.55;;
76425;SDS011;65258;42.680;23.266;2022-11-20T05:54:34;2.80;;;1.40;;
76425;SDS011;65258;42.680;23.266;2022-11-20T05:56:59;3.63;;;1.48;;
76425;SDS011;65258;42.680;23.266;2022-11-20T05:59:25;4.13;;;1.20;;
76425;SDS011;65258;42.680;23.266;2022-11-20T06:01:50;4.28;;;1.40;;
76425;SDS011;65258;42.680;23.266;2022-11-20T06:04:16;3.92;;;2.30;;
76425;SDS011;65258;42.680;23.266;2022-11-20T06:06:41;3.22;;;1.27;;
76425;SDS011;65258;42.680;23.266;2022-11-20T06:09:07;3.20;;;1.38;;
76425;SDS011;65258;42.680;23.266;2022-11-20T06:11:32;2.78;;;1.23;;
76425;SDS011;65258;42.680;23.266;2022-11-20T06:13:58;2.83;;;1.20;;
76425;SDS011;65258;42.680;23.266;2022-11-20T06:16:23;2.13;;;1.00;;
76425;SDS011;65258;42.680;23.266;2022-11-20T06:18:49;2.38;;;1.30;;
76425;SDS011;65258;42.680;23.266;2022-11-20T06:21:16;4.45;;;1.40;;
76425;SDS011;65258;42.680;23.266;2022-11-20T06:23:44;2.50;;;1.35;;
76425;SDS011;65258;42.680;23.266;2022-11-20T06:26:14;3.35;;;1.65;;
76425;SDS011;65258;42.680;23.266;2022-11-20T06:28:41;2.88;;;1.52;;
76425;SDS011;65258;42.680;23.266;2022-11-20T06:31:07;3.20;;;1.60;;
76425;SDS011;65258;42.680;23.266;2022-11-20T06:33:36;3.08;;;1.50;;
76425;SDS011;65258;42.680;23.266;2022-11-20T06:36:02;3.90;;;1.42;;
76425;SDS011;65258;42.680;23.266;2022-11-20T06:38:28;3.15;;;1.75;;
76425;SDS011;65258;42.680;23.266;2022-11-20T06:40:54;2.10;;;1.20;;
76425;SDS011;65258;42.680;23.266;2022-11-20T06:43:20;4.95;;;1.92;;
76425;SDS011;65258;42.680;23.266;2022-11-20T06:45:51;4.15;;;1.60;;
76425;SDS011;65258;42.680;23.266;2022-11-20T06:48:20;4.70;;;2.13;;
76425;SDS011;65258;42.680;23.266;2022-11-20T06:50:46;5.40;;;2.60;;
76425;SDS011;65258;42.680;23.266;2022-11-20T06:53:12;1.85;;;1.30;;
76425;SDS011;65258;42.680;23.266;2022-11-20T06:55:41;2.53;;;1.50;;
76425;SDS011;65258;42.680;23.266;2022-11-20T06:58:07;1.73;;;1.13;;
76425;SDS011;65258;42.680;23.266;2022-11-20T07:00:33;3.05;;;1.30;;
76425;SDS011;65258;42.680;23.266;2022-11-20T07:03:02;2.15;;;1.30;;
76425;SDS011;65258;42.680;23.266;2022-11-20T07:05:28;3.08;;;1.40;;
76425;SDS011;65258;42.680;23.266;2022-11-20T07:07:55;3.28;;;1.40;;
76425;SDS011;65258;42.680;23.266;2022-11-20T07:10:21;3.58;;;1.45;;
76425;SDS011;65258;42.680;23.266;2022-11-20T07:12:53;3.90;;;1.70;;
76425;SDS011;65258;42.680;23.266;2022-11-20T07:15:20;3.20;;;1.60;;
76425;SDS011;65258;42.680;23.266;2022-11-20T07:17:47;2.65;;;1.50;;
76425;SDS011;65258;42.680;23.266;2022-11-20T07:20:13;2.88;;;1.88;;
76425;SDS011;65258;42.680;23.266;2022-11-20T07:22:39;3.90;;;1.63;;
76425;SDS011;65258;42.680;23.266;2022-11-20T07:25:04;4.75;;;1.80;;
76425;SDS011;65258;42.680;23.266;2022-11-20T07:27:30;2.95;;;1.73;;
76425;SDS011;65258;42.680;23.266;2022-11-20T07:29:56;4.43;;;2.00;;
76425;SDS011;65258;42.680;23.266;2022-11-20T07:32:22;4.55;;;1.88;;
76425;SDS011;65258;42.680;23.266;2022-11-20T07:34:47;3.80;;;2.20;;
76425;SDS011;65258;42.680;23.266;2022-11-20T07:37:13;4.82;;;1.75;;
76425;SDS011;65258;42.680;23.266;2022-11-20T07:39:39;2.65;;;1.60;;
76425;SDS011;65258;42.680;23.266;2022-11-20T07:42:08;6.70;;;1.48;;
76425;SDS011;65258;42.680;23.266;2022-11-20T07:44:36;3.33;;;1.58;;
76425;SDS011;65258;42.680;23.266;2022-11-20T07:47:01;4.20;;;1.77;;
76425;SDS011;65258;42.680;23.266;2022-11-20T07:49:27;2.60;;;1.35;;
76425;SDS011;65258;42.680;23.266;2022-11-20T07:51:52;3.15;;;1.55;;
76425;SDS011;65258;42.680;23.266;2022-11-20T07:54:19;3.38;;;2.03;;
76425;SDS011;65258;42.680;23.266;2022-11-20T07:56:45;4.20;;;1.60;;
76425;SDS011;65258;42.680;23.266;2022-11-20T07:59:11;5.53;;;1.65;;
76425;SDS011;65258;42.680;23.266;2022-11-20T08:01:37;3.78;;;1.40;;
76425;SDS011;65258;42.680;23.266;2022-11-20T08:06:29;6.45;;;1.77;;
76425;SDS011;65258;42.680;23.266;2022-11-20T08:08:54;5.38;;;1.45;;
76425;SDS011;65258;42.680;23.266;2022-11-20T08:11:20;2.20;;;1.23;;
76425;SDS011;65258;42.680;23.266;2022-11-20T08:14:04;3.58;;;1.42;;
76425;SDS011;65258;42.680;23.266;2022-11-20T08:16:43;4.88;;;1.90;;
76425;SDS011;65258;42.680;23.266;2022-11-20T08:19:10;4.32;;;1.70;;
76425;SDS011;65258;42.680;23.266;2022-11-20T08:21:36;9.02;;;1.98;;
76425;SDS011;65258;42.680;23.266;2022-11-20T08:24:02;5.15;;;1.98;;
76425;SDS011;65258;42.680;23.266;2022-11-20T08:26:28;6.13;;;1.90;;
76425;SDS011;65258;42.680;23.266;2022-11-20T08:28:54;5.55;;;2.15;;
76425;SDS011;65258;42.680;23.266;2022-11-20T08:31:21;3.17;;;1.60;;
76425;SDS011;65258;42.680;23.266;2022-11-20T08:33:47;6.20;;;1.77;;
76425;SDS011;65258;42.680;23.266;2022-11-20T08:36:13;4.32;;;1.60;;
76425;SDS011;65258;42.680;23.266;2022-11-20T08:38:39;7.75;;;1.90;;
76425;SDS011;65258;42.680;23.266;2022-11-20T08:41:04;6.10;;;2.10;;
76425;SDS011;65258;42.680;23.266;2022-11-20T08:43:49;3.92;;;2.17;;
76425;SDS011;65258;42.680;23.266;2022-11-20T08:46:15;4.38;;;2.13;;
76425;SDS011;65258;42.680;23.266;2022-11-20T08:48:41;4.30;;;2.20;;
76425;SDS011;65258;42.680;23.266;2022-11-20T08:51:07;4.95;;;2.40;;
76425;SDS011;65258;42.680;23.266;2022-11-20T08:53:32;3.17;;;2.25;;
76425;SDS011;65258;42.680;23.266;2022-11-20T08:55:58;4.60;;;2.42;;
76425;SDS011;65258;42.680;23.266;2022-11-20T08:58:24;6.65;;;2.92;;
76425;SDS011;65258;42.680;23.266;2022-11-20T09:00:50;6.70;;;3.50;;
76425;SDS011;65258;42.680;23.266;2022-11-20T09:03:16;5.28;;;3.20;;
76425;SDS011;65258;42.680;23.266;2022-11-20T09:05:41;6.40;;;3.60;;
76425;SDS011;65258;42.680;23.266;2022-11-20T09:08:07;6.03;;;3.20;;
76425;SDS011;65258;42.680;23.266;2022-11-20T09:10:34;6.03;;;3.30;;
76425;SDS011;65258;42.680;23.266;2022-11-20T09:13:00;7.57;;;3.20;;
76425;SDS011;65258;42.680;23.266;2022-11-20T09:15:26;4.80;;;2.67;;
76425;SDS011;65258;42.680;23.266;2022-11-20T09:17:56;8.65;;;3.95;;
76425;SDS011;65258;42.680;23.266;2022-11-20T09:20:23;6.10;;;2.80;;
76425;SDS011;65258;42.680;23.266;2022-11-20T09:22:50;4.38;;;1.95;;
76425;SDS011;65258;42.680;23.266;2022-11-20T09:25:16;4.18;;;1.92;;
76425;SDS011;65258;42.680;23.266;2022-11-20T09:27:42;5.22;;;2.22;;
76425;SDS011;65258;42.680;23.266;2022-11-20T09:32:34;5.25;;;1.95;;
76425;SDS011;65258;42.680;23.266;2022-11-20T09:35:01;3.78;;;2.25;;
76425;SDS011;65258;42.680;23.266;2022-11-20T09:37:27;5.55;;;2.10;;
76425;SDS011;65258;42.680;23.266;2022-11-20T09:39:52;6.03;;;2.58;;
76425;SDS011;65258;42.680;23.266;2022-11-20T09:42:36;6.32;;;2.53;;
76425;SDS011;65258;42.680;23.266;2022-11-20T09:48:26;3.80;;;2.22;;
76425;SDS011;65258;42.680;23.266;2022-11-20T09:56:33;4.70;;;2.15;;
76425;SDS011;65258;42.680;23.266;2022-11-20T09:59:03;6.65;;;2.58;;
76425;SDS011;65258;42.680;23.266;2022-11-20T10:01:31;4.35;;;2.45;;
76425;SDS011;65258;42.680;23.266;2022-11-20T10:06:43;6.55;;;2.50;;
76425;SDS011;65258;42.680;23.266;2022-11-20T10:09:29;6.80;;;3.05;;
76425;SDS011;65258;42.680;23.266;2022-11-20T10:20:17;6.13;;;3.15;;
76425;SDS011;65258;42.680;23.266;2022-11-20T10:25:51;5.82;;;3.10;;
76425;SDS011;65258;42.680;23.266;2022-11-20T10:31:21;9.20;;;4.07;;
76425;SDS011;65258;42.680;23.266;2022-11-20T10:34:25;5.30;;;3.45;;
76425;SDS011;65258;42.680;23.266;2022-11-20T10:36:56;6.70;;;4.18;;
76425;SDS011;65258;42.680;23.266;2022-11-20T10:41:57;9.90;;;4.00;;
76425;SDS011;65258;42.680;23.266;2022-11-20T10:44:28;10.50;;;4.15;;
76425;SDS011;65258;42.680;23.266;2022-11-20T10:47:14;7.63;;;3.65;;
76425;SDS011;65258;42.680;23.266;2022-11-20T10:49:42;10.77;;;3.72;;
76425;SDS011;65258;42.680;23.266;2022-11-20T10:55:11;7.05;;;3.20;;
76425;SDS011;65258;42.680;23.266;2022-11-20T10:57:58;10.63;;;3.88;;
76425;SDS011;65258;42.680;23.266;2022-11-20T11:00:32;10.57;;;3.80;;
76425;SDS011;65258;42.680;23.266;2022-11-20T11:02:57;3.88;;;2.40;;
76425;SDS011;65258;42.680;23.266;2022-11-20T11:05:45;5.95;;;2.30;;
76425;SDS011;65258;42.680;23.266;2022-11-20T11:08:17;4.57;;;1.48;;
76425;SDS011;65258;42.680;23.266;2022-11-20T11:13:25;3.83;;;1.25;;
76425;SDS011;65258;42.680;23.266;2022-11-20T11:15:52;2.92;;;1.40;;
76425;SDS011;65258;42.680;23.266;2022-11-20T11:18:31;3.00;;;1.40;;
76425;SDS011;65258;42.680;23.266;2022-11-20T11:21:02;2.95;;;1.52;;
76425;SDS011;65258;42.680;23.266;2022-11-20T11:26:04;2.95;;;1.35;;
76425;SDS011;65258;42.680;23.266;2022-11-20T11:28:31;5.32;;;1.52;;
76425;SDS011;65258;42.680;23.266;2022-11-20T11:30:57;2.97;;;1.27;;
76425;SDS011;65258;42.680;23.266;2022-11-20T11:33:30;5.78;;;1.98;;
76425;SDS011;65258;42.680;23.266;2022-11-20T11:36:02;4.30;;;1.63;;
76425;SDS011;65258;42.680;23.266;2022-11-20T11:38:37;4.40;;;1.60;;
76425;SDS011;65258;42.680;23.266;2022-11-20T11:41:05;4.38;;;1.70;;
76425;SDS011;65258;42.680;23.266;2022-11-20T11:43:35;5.65;;;1.70;;
76425;SDS011;65258;42.680;23.266;2022-11-20T11:48:55;2.83;;;1.15;;
76425;SDS011;65258;42.680;23.266;2022-11-20T11:51:24;2.38;;;1.10;;
76425;SDS011;65258;42.680;23.266;2022-11-20T11:53:58;3.53;;;1.60;;
76425;SDS011;65258;42.680;23.266;2022-11-20T11:56:26;5.88;;;1.60;;
76425;SDS011;65258;42.680;23.266;2022-11-20T11:58:53;5.57;;;1.65;;
76425;SDS011;65258;42.680;23.266;2022-11-20T12:07:04;4.60;;;1.42;;
76425;SDS011;65258;42.680;23.266;2022-11-20T12:09:54;3.17;;;1.52;;
76425;SDS011;65258;42.680;23.266;2022-11-20T12:12:25;2.97;;;1.27;;
76425;SDS011;65258;42.680;23.266;2022-11-20T12:14:55;2.20;;;1.20;;
76425;SDS011;65258;42.680;23.266;2022-11-20T12:17:21;3.67;;;1.27;;
76425;SDS011;65258;42.680;23.266;2022-11-20T12:19:47;2.47;;;0.90;;
76425;SDS011;65258;42.680;23.266;2022-11-20T12:22:29;3.05;;;1.60;;
76425;SDS011;65258;42.680;23.266;2022-11-20T12:27:39;2.75;;;1.23;;
76425;SDS011;65258;42.680;23.266;2022-11-20T12:30:27;4.63;;;1.52;;
76425;SDS011;65258;42.680;23.266;2022-11-20T12:44:25;6.25;;;2.63;;
76425;SDS011;65258;42.680;23.266;2022-11-20T12:49:51;6.88;;;3.92;;
76425;SDS011;65258;42.680;23.266;2022-11-20T12:52:37;5.22;;;2.40;;
76425;SDS011;65258;42.680;23.266;2022-11-20T12:55:21;4.32;;;2.00;;
76425;SDS011;65258;42.680;23.266;2022-11-20T13:00:59;2.22;;;1.17;;
76425;SDS011;65258;42.680;23.266;2022-11-20T13:03:33;3.60;;;1.70;;
76425;SDS011;65258;42.680;23.266;2022-11-20T13:06:06;13.75;;;7.00;;
76425;SDS011;65258;42.680;23.266;2022-11-20T13:08:53;12.50;;;5.85;;
76425;SDS011;65258;42.680;23.266;2022-11-20T13:19:55;5.95;;;3.05;;
76425;SDS011;65258;42.680;23.266;2022-11-20T13:22:45;9.48;;;5.03;;
76425;SDS011;65258;42.680;23.266;2022-11-20T13:25:10;6.88;;;3.55;;
76425;SDS011;65258;42.680;23.266;2022-11-20T13:27:47;6.57;;;3.28;;
76425;SDS011;65258;42.680;23.266;2022-11-20T13:32:52;9.23;;;5.03;;
76425;SDS011;65258;42.680;23.266;2022-11-20T13:35:27;10.23;;;4.55;;
76425;SDS011;65258;42.680;23.266;2022-11-20T13:40:33;7.68;;;3.47;;
76425;SDS011;65258;42.680;23.266;2022-11-20T13:43:04;7.85;;;4.05;;
76425;SDS011;65258;42.680;23.266;2022-11-20T13:45:32;8.60;;;5.20;;
76425;SDS011;65258;42.680;23.266;2022-11-20T13:48:01;6.88;;;4.22;;
76425;SDS011;65258;42.680;23.266;2022-11-20T13:50:40;6.90;;;3.00;;
76425;SDS011;65258;42.680;23.266;2022-11-20T13:53:20;3.55;;;2.10;;
76425;SDS011;65258;42.680;23.266;2022-11-20T14:01:17;6.93;;;2.55;;
76425;SDS011;65258;42.680;23.266;2022-11-20T14:03:51;5.90;;;2.80;;
76425;SDS011;65258;42.680;23.266;2022-11-20T14:06:31;4.40;;;2.33;;
76425;SDS011;65258;42.680;23.266;2022-11-20T14:08:59;4.53;;;2.60;;
76425;SDS011;65258;42.680;23.266;2022-11-20T14:11:26;4.47;;;2.72;;
76425;SDS011;65258;42.680;23.266;2022-11-20T14:16:23;3.35;;;2.00;;
76425;SDS011;65258;42.680;23.266;2022-11-20T14:21:29;4.75;;;2.60;;
76425;SDS011;65258;42.680;23.266;2022-11-20T14:26:35;6.15;;;2.60;;
76425;SDS011;65258;42.680;23.266;2022-11-20T14:29:03;4.03;;;2.45;;
76425;SDS011;65258;42.680;23.266;2022-11-20T14:31:29;3.72;;;2.10;;
76425;SDS011;65258;42.680;23.266;2022-11-20T14:33:55;4.88;;;1.80;;
76425;SDS011;65258;42.680;23.266;2022-11-20T14:36:22;4.05;;;1.98;;
76425;SDS011;65258;42.680;23.266;2022-11-20T14:38:50;2.97;;;1.50;;
76425;SDS011;65258;42.680;23.266;2022-11-20T14:41:20;4.03;;;1.70;;
76425;SDS011;65258;42.680;23.266;2022-11-20T14:43:50;3.45;;;1.48;;
76425;SDS011;65258;42.680;23.266;2022-11-20T14:46:19;2.95;;;1.40;;
76425;SDS011;65258;42.680;23.266;2022-11-20T14:48:46;3.00;;;1.98;;
76425;SDS011;65258;42.680;23.266;2022-11-20T14:54:12;3.95;;;2.50;;
76425;SDS011;65258;42.680;23.266;2022-11-20T14:56:40;6.30;;;2.90;;
76425;SDS011;65258;42.680;23.266;2022-11-20T14:59:06;11.40;;;6.50;;
76425;SDS011;65258;42.680;23.266;2022-11-20T15:01:33;8.80;;;5.53;;
76425;SDS011;65258;42.680;23.266;2022-11-20T15:04:11;5.28;;;3.92;;
76425;SDS011;65258;42.680;23.266;2022-11-20T15:06:37;4.55;;;2.60;;
76425;SDS011;65258;42.680;23.266;2022-11-20T15:09:14;5.78;;;2.83;;
76425;SDS011;65258;42.680;23.266;2022-11-20T15:11:40;5.57;;;3.50;;
76425;SDS011;65258;42.680;23.266;2022-11-20T15:14:29;6.75;;;3.78;;
76425;SDS011;65258;42.680;23.266;2022-11-20T15:16:57;3.55;;;2.42;;
76425;SDS011;65258;42.680;23.266;2022-11-20T15:19:24;5.00;;;2.38;;
76425;SDS011;65258;42.680;23.266;2022-11-20T15:21:51;4.97;;;2.90;;
76425;SDS011;65258;42.680;23.266;2022-11-20T15:24:17;3.95;;;2.90;;
76425;SDS011;65258;42.680;23.266;2022-11-20T15:26:43;4.35;;;2.65;;
76425;SDS011;65258;42.680;23.266;2022-11-20T15:29:12;5.47;;;3.03;;
76425;SDS011;65258;42.680;23.266;2022-11-20T15:31:43;22.00;;;10.10;;
76425;SDS011;65258;42.680;23.266;2022-11-20T15:34:16;5.97;;;3.10;;
76425;SDS011;65258;42.680;23.266;2022-11-20T15:36:42;7.90;;;3.03;;
76425;SDS011;65258;42.680;23.266;2022-11-20T15:39:08;4.38;;;2.30;;
76425;SDS011;65258;42.680;23.266;2022-11-20T15:41:34;9.80;;;3.17;;
76425;SDS011;65258;42.680;23.266;2022-11-20T15:44:01;4.22;;;2.80;;
76425;SDS011;65258;42.680;23.266;2022-11-20T15:46:28;4.57;;;2.78;;
76425;SDS011;65258;42.680;23.266;2022-11-20T15:48:58;3.80;;;2.38;;
76425;SDS011;65258;42.680;23.266;2022-11-20T15:54:01;5.03;;;2.35;;
76425;SDS011;65258;42.680;23.266;2022-11-20T15:56:35;5.53;;;2.10;;
76425;SDS011;65258;42.680;23.266;2022-11-20T15:59:01;4.68;;;2.13;;
76425;SDS011;65258;42.680;23.266;2022-11-20T16:01:26;3.58;;;2.00;;
76425;SDS011;65258;42.680;23.266;2022-11-20T16:03:52;4.22;;;3.20;;
76425;SDS011;65258;42.680;23.266;2022-11-20T16:06:17;4.57;;;2.28;;
76425;SDS011;65258;42.680;23.266;2022-11-20T16:08:43;3.05;;;1.70;;
76425;SDS011;65258;42.680;23.266;2022-11-20T16:11:12;4.47;;;1.80;;
76425;SDS011;65258;42.680;23.266;2022-11-20T16:13:39;5.28;;;2.35;;
76425;SDS011;65258;42.680;23.266;2022-11-20T16:16:25;5.32;;;2.60;;
76425;SDS011;65258;42.680;23.266;2022-11-20T16:18:54;5.57;;;3.00;;
76425;SDS011;65258;42.680;23.266;2022-11-20T16:21:19;4.63;;;2.50;;
76425;SDS011;65258;42.680;23.266;2022-11-20T16:23:45;4.78;;;2.92;;
76425;SDS011;65258;42.680;23.266;2022-11-20T16:26:15;8.07;;;4.10;;
76425;SDS011;65258;42.680;23.266;2022-11-20T16:28:45;9.55;;;4.63;;
76425;SDS011;65258;42.680;23.266;2022-11-20T16:31:12;7.70;;;4.95;;